sensor_id;sensor_type;location;lat;lon;timestamp;pressure;altitude;pressure_sealevel;temperature
65272;BMP280;51868;48.812;8.198;2023-02-13T00:00:33;102320.72;;;5.44
65272;BMP280;51868;48.812;8.198;2023-02-13T00:03:01;102315.88;;;5.37
65272;BMP280;51868;48.812;8.198;2023-02-13T00:05:29;102316.94;;;5.34
65272;BMP280;51868;48.812;8.198;2023-02-13T00:07:57;102314.69;;;5.32
65272;BMP280;51868;48.812;8.198;2023-02-13T00:10:25;102305.69;;;5.32
65272;BMP280;51868;48.812;8.198;2023-02-13T00:12:52;102302.94;;;5.32
65272;BMP280;51868;48.812;8.198;2023-02-13T00:15:21;102312.47;;;5.31
65272;BMP280;51868;48.812;8.198;2023-02-13T00:17:49;102309.19;;;5.32
65272;BMP280;51868;48.812;8.198;2023-02-13T00:20:17;102312.66;;;5.33
65272;BMP280;51868;48.812;8.198;2023-02-13T00:22:44;102309.91;;;5.33
65272;BMP280;51868;48.812;8.198;2023-02-13T00:25:12;102315.25;;;5.31
65272;BMP280;51868;48.812;8.198;2023-02-13T00:27:40;102315.03;;;5.29
65272;BMP280;51868;48.812;8.198;2023-02-13T00:30:08;102316.31;;;5.28
65272;BMP280;51868;48.812;8.198;2023-02-13T00:32:37;102322.88;;;5.25
65272;BMP280;51868;48.812;8.198;2023-02-13T00:35:05;102317.44;;;5.19
65272;BMP280;51868;48.812;8.198;2023-02-13T00:37:33;102319.25;;;5.16
65272;BMP280;51868;48.812;8.198;2023-02-13T00:40:01;102320.34;;;5.13
65272;BMP280;51868;48.812;8.198;2023-02-13T00:42:28;102321.59;;;5.12
65272;BMP280;51868;48.812;8.198;2023-02-13T00:44:56;102317.38;;;5.11
65272;BMP280;51868;48.812;8.198;2023-02-13T00:47:24;102326.25;;;5.04
65272;BMP280;51868;48.812;8.198;2023-02-13T00:49:52;102327.50;;;5.03
65272;BMP280;51868;48.812;8.198;2023-02-13T00:52:20;102327.50;;;5.03
65272;BMP280;51868;48.812;8.198;2023-02-13T00:54:48;102325.81;;;5.00
65272;BMP280;51868;48.812;8.198;2023-02-13T00:57:16;102324.56;;;5.01
65272;BMP280;51868;48.812;8.198;2023-02-13T00:59:43;102326.53;;;5.01
65272;BMP280;51868;48.812;8.198;2023-02-13T01:02:11;102339.34;;;4.98
65272;BMP280;51868;48.812;8.198;2023-02-13T01:04:39;102333.22;;;4.92
65272;BMP280;51868;48.812;8.198;2023-02-13T01:07:08;102340.59;;;4.84
65272;BMP280;51868;48.812;8.198;2023-02-13T01:09:35;102338.50;;;4.77
65272;BMP280;51868;48.812;8.198;2023-02-13T01:12:03;102350.53;;;4.73
65272;BMP280;51868;48.812;8.198;2023-02-13T01:14:31;102354.09;;;4.68
65272;BMP280;51868;48.812;8.198;2023-02-13T01:16:59;102345.63;;;4.66
65272;BMP280;51868;48.812;8.198;2023-02-13T01:19:26;102349.66;;;4.65
65272;BMP280;51868;48.812;8.198;2023-02-13T01:21:54;102350.72;;;4.62
65272;BMP280;51868;48.812;8.198;2023-02-13T01:24:23;102354.28;;;4.57
65272;BMP280;51868;48.812;8.198;2023-02-13T01:26:51;102350.88;;;4.51
65272;BMP280;51868;48.812;8.198;2023-02-13T01:29:18;102359.66;;;4.49
65272;BMP280;51868;48.812;8.198;2023-02-13T01:31:46;102349.16;;;4.48
65272;BMP280;51868;48.812;8.198;2023-02-13T01:34:14;102358.69;;;4.47
65272;BMP280;51868;48.812;8.198;2023-02-13T01:36:41;102355.94;;;4.47
65272;BMP280;51868;48.812;8.198;2023-02-13T01:39:11;102354.47;;;4.46
65272;BMP280;51868;48.812;8.198;2023-02-13T01:41:40;102352.97;;;4.45
65272;BMP280;51868;48.812;8.198;2023-02-13T01:47:09;102351.50;;;4.44
65272;BMP280;51868;48.812;8.198;2023-02-13T01:49:39;102350.53;;;4.41
65272;BMP280;51868;48.812;8.198;2023-02-13T01:52:08;102357.16;;;4.33
65272;BMP280;51868;48.812;8.198;2023-02-13T01:54:38;102360.50;;;4.25
65272;BMP280;51868;48.812;8.198;2023-02-13T01:57:11;102358.78;;;4.22
65272;BMP280;51868;48.812;8.198;2023-02-13T01:59:43;102361.13;;;4.18
65272;BMP280;51868;48.812;8.198;2023-02-13T02:02:14;102359.16;;;4.13
65272;BMP280;51868;48.812;8.198;2023-02-13T02:04:43;102361.25;;;4.07
65272;BMP280;51868;48.812;8.198;2023-02-13T02:07:20;102365.78;;;4.04
65272;BMP280;51868;48.812;8.198;2023-02-13T02:09:51;102367.56;;;4.02
65272;BMP280;51868;48.812;8.198;2023-02-13T02:12:24;102368.38;;;3.97
65272;BMP280;51868;48.812;8.198;2023-02-13T02:14:53;102372.16;;;3.94
65272;BMP280;51868;48.812;8.198;2023-02-13T02:17:24;102368.44;;;3.91
65272;BMP280;51868;48.812;8.198;2023-02-13T02:20:00;102355.22;;;3.90
65272;BMP280;51868;48.812;8.198;2023-02-13T02:22:58;102358.78;;;3.84
65272;BMP280;51868;48.812;8.198;2023-02-13T02:28:47;102371.81;;;3.78
65272;BMP280;51868;48.812;8.198;2023-02-13T02:34:25;102371.28;;;3.61
65272;BMP280;51868;48.812;8.198;2023-02-13T02:37:04;102362.59;;;3.57
65272;BMP280;51868;48.812;8.198;2023-02-13T02:39:44;102357.09;;;3.57
65272;BMP280;51868;48.812;8.198;2023-02-13T02:42:21;102356.63;;;3.53
65272;BMP280;51868;48.812;8.198;2023-02-13T02:44:59;102349.66;;;3.52
65272;BMP280;51868;48.812;8.198;2023-02-13T02:47:35;102356.88;;;3.55
65272;BMP280;51868;48.812;8.198;2023-02-13T02:50:32;102353.88;;;3.53
65272;BMP280;51868;48.812;8.198;2023-02-13T02:53:10;102354.94;;;3.50
65272;BMP280;51868;48.812;8.198;2023-02-13T02:55:42;102357.97;;;3.46
65272;BMP280;51868;48.812;8.198;2023-02-13T02:58:18;102345.78;;;3.41
65272;BMP280;51868;48.812;8.198;2023-02-13T03:01:08;102361.50;;;3.41
65272;BMP280;51868;48.812;8.198;2023-02-13T03:03:55;102356.31;;;3.37
65272;BMP280;51868;48.812;8.198;2023-02-13T03:06:45;102380.03;;;3.35
65272;BMP280;51868;48.812;8.198;2023-02-13T03:09:18;102363.13;;;3.31
65272;BMP280;51868;48.812;8.198;2023-02-13T03:12:05;102367.63;;;3.28
65272;BMP280;51868;48.812;8.198;2023-02-13T03:14:52;102364.44;;;3.24
65272;BMP280;51868;48.812;8.198;2023-02-13T03:17:20;102366.94;;;3.22
65272;BMP280;51868;48.812;8.198;2023-02-13T03:20:14;102369.47;;;3.20
65272;BMP280;51868;48.812;8.198;2023-02-13T03:23:10;102368.72;;;3.19
65272;BMP280;51868;48.812;8.198;2023-02-13T03:25:50;102369.72;;;3.16
65272;BMP280;51868;48.812;8.198;2023-02-13T03:28:27;102378.72;;;3.17
65272;BMP280;51868;48.812;8.198;2023-02-13T03:31:26;102375.97;;;3.17
65272;BMP280;51868;48.812;8.198;2023-02-13T03:34:01;102383.97;;;3.15
65272;BMP280;51868;48.812;8.198;2023-02-13T03:36:36;102385.44;;;3.16
65272;BMP280;51868;48.812;8.198;2023-02-13T03:39:34;102391.47;;;3.14
65272;BMP280;51868;48.812;8.198;2023-02-13T03:42:08;102393.97;;;3.12
65272;BMP280;51868;48.812;8.198;2023-02-13T03:44:42;102394.97;;;3.09
65272;BMP280;51868;48.812;8.198;2023-02-13T03:47:13;102396.75;;;3.07
65272;BMP280;51868;48.812;8.198;2023-02-13T03:49:45;102398.81;;;3.01
65272;BMP280;51868;48.812;8.198;2023-02-13T03:52:34;102411.31;;;2.96
65272;BMP280;51868;48.812;8.198;2023-02-13T03:55:08;102407.38;;;2.91
65272;BMP280;51868;48.812;8.198;2023-02-13T03:57:58;102417.84;;;2.87
65272;BMP280;51868;48.812;8.198;2023-02-13T04:00:47;102412.13;;;2.85
65272;BMP280;51868;48.812;8.198;2023-02-13T04:03:21;102416.66;;;2.83
65272;BMP280;51868;48.812;8.198;2023-02-13T04:05:53;102423.66;;;2.78
65272;BMP280;51868;48.812;8.198;2023-02-13T04:08:23;102421.69;;;2.73
65272;BMP280;51868;48.812;8.198;2023-02-13T04:10:56;102423.16;;;2.74
65272;BMP280;51868;48.812;8.198;2023-02-13T04:13:29;102431.63;;;2.76
65272;BMP280;51868;48.812;8.198;2023-02-13T04:16:02;102433.88;;;2.77
65272;BMP280;51868;48.812;8.198;2023-02-13T04:18:32;102432.63;;;2.78
65272;BMP280;51868;48.812;8.198;2023-02-13T04:21:01;102427.63;;;2.77
65272;BMP280;51868;48.812;8.198;2023-02-13T04:23:29;102432.91;;;2.75
65272;BMP280;51868;48.812;8.198;2023-02-13T04:26:04;102422.44;;;2.73
65272;BMP280;51868;48.812;8.198;2023-02-13T04:28:33;102425.66;;;2.72
65272;BMP280;51868;48.812;8.198;2023-02-13T04:31:01;102429.66;;;2.71
65272;BMP280;51868;48.812;8.198;2023-02-13T04:33:28;102429.19;;;2.67
65272;BMP280;51868;48.812;8.198;2023-02-13T04:35:56;102426.72;;;2.63
65272;BMP280;51868;48.812;8.198;2023-02-13T04:38:24;102422.00;;;2.64
65272;BMP280;51868;48.812;8.198;2023-02-13T04:40:54;102420.00;;;2.64
65272;BMP280;51868;48.812;8.198;2023-02-13T04:43:23;102413.78;;;2.64
65272;BMP280;51868;48.812;8.198;2023-02-13T04:45:51;102411.53;;;2.62
65272;BMP280;51868;48.812;8.198;2023-02-13T04:48:19;102414.03;;;2.60
65272;BMP280;51868;48.812;8.198;2023-02-13T04:50:47;102421.28;;;2.58
65272;BMP280;51868;48.812;8.198;2023-02-13T04:53:14;102415.81;;;2.58
65272;BMP280;51868;48.812;8.198;2023-02-13T04:55:42;102407.81;;;2.60
65272;BMP280;51868;48.812;8.198;2023-02-13T04:58:10;102407.31;;;2.61
65272;BMP280;51868;48.812;8.198;2023-02-13T05:00:39;102408.06;;;2.62
65272;BMP280;51868;48.812;8.198;2023-02-13T05:03:08;102413.53;;;2.62
65272;BMP280;51868;48.812;8.198;2023-02-13T05:05:36;102403.81;;;2.61
65272;BMP280;51868;48.812;8.198;2023-02-13T05:08:05;102415.81;;;2.58
65272;BMP280;51868;48.812;8.198;2023-02-13T05:10:33;102406.31;;;2.59
65272;BMP280;51868;48.812;8.198;2023-02-13T05:13:01;102403.81;;;2.61
65272;BMP280;51868;48.812;8.198;2023-02-13T05:15:29;102404.06;;;2.63
65272;BMP280;51868;48.812;8.198;2023-02-13T05:17:58;102400.06;;;2.64
65272;BMP280;51868;48.812;8.198;2023-02-13T05:20:25;102396.28;;;2.67
65272;BMP280;51868;48.812;8.198;2023-02-13T05:22:53;102408.97;;;2.70
65272;BMP280;51868;48.812;8.198;2023-02-13T05:25:40;102404.94;;;2.76
65272;BMP280;51868;48.812;8.198;2023-02-13T05:28:08;102407.66;;;2.82
65272;BMP280;51868;48.812;8.198;2023-02-13T05:30:56;102402.63;;;2.86
65272;BMP280;51868;48.812;8.198;2023-02-13T05:33:27;102407.63;;;2.88
65272;BMP280;51868;48.812;8.198;2023-02-13T05:35:54;102409.59;;;2.93
65272;BMP280;51868;48.812;8.198;2023-02-13T05:38:22;102395.63;;;2.96
65272;BMP280;51868;48.812;8.198;2023-02-13T05:40:50;102402.28;;;3.01
65272;BMP280;51868;48.812;8.198;2023-02-13T05:43:18;102401.50;;;3.06
65272;BMP280;51868;48.812;8.198;2023-02-13T05:45:46;102408.94;;;3.11
65272;BMP280;51868;48.812;8.198;2023-02-13T05:48:14;102402.94;;;3.13
65272;BMP280;51868;48.812;8.198;2023-02-13T05:50:45;102406.19;;;3.11
65272;BMP280;51868;48.812;8.198;2023-02-13T05:53:12;102411.41;;;3.15
65272;BMP280;51868;48.812;8.198;2023-02-13T05:55:40;102402.38;;;3.20
65272;BMP280;51868;48.812;8.198;2023-02-13T05:58:08;102401.38;;;3.23
65272;BMP280;51868;48.812;8.198;2023-02-13T06:00:37;102406.25;;;3.30
65272;BMP280;51868;48.812;8.198;2023-02-13T06:03:05;102402.50;;;3.33
65272;BMP280;51868;48.812;8.198;2023-02-13T06:05:33;102400.25;;;3.37
65272;BMP280;51868;48.812;8.198;2023-02-13T06:08:02;102398.47;;;3.40
65272;BMP280;51868;48.812;8.198;2023-02-13T06:10:30;102399.69;;;3.45
65272;BMP280;51868;48.812;8.198;2023-02-13T06:12:57;102396.13;;;3.50
65272;BMP280;51868;48.812;8.198;2023-02-13T06:15:25;102392.41;;;3.47
65272;BMP280;51868;48.812;8.198;2023-02-13T06:17:53;102392.69;;;3.43
65272;BMP280;51868;48.812;8.198;2023-02-13T06:20:20;102392.69;;;3.43
65272;BMP280;51868;48.812;8.198;2023-02-13T06:22:48;102403.91;;;3.46
65272;BMP280;51868;48.812;8.198;2023-02-13T06:25:18;102392.13;;;3.51
65272;BMP280;51868;48.812;8.198;2023-02-13T06:27:45;102399.09;;;3.52
65272;BMP280;51868;48.812;8.198;2023-02-13T06:30:14;102398.88;;;3.50
65272;BMP280;51868;48.812;8.198;2023-02-13T06:32:42;102397.09;;;3.52
65272;BMP280;51868;48.812;8.198;2023-02-13T06:35:10;102395.78;;;3.59
65272;BMP280;51868;48.812;8.198;2023-02-13T06:37:38;102400.97;;;3.62
65272;BMP280;51868;48.812;8.198;2023-02-13T06:40:07;102409.44;;;3.64
65272;BMP280;51868;48.812;8.198;2023-02-13T06:42:36;102405.72;;;3.62
65272;BMP280;51868;48.812;8.198;2023-02-13T06:45:05;102413.28;;;3.56
65272;BMP280;51868;48.812;8.198;2023-02-13T06:47:33;102415.84;;;3.48
65272;BMP280;51868;48.812;8.198;2023-02-13T06:50:01;102411.66;;;3.41
65272;BMP280;51868;48.812;8.198;2023-02-13T06:52:29;102418.44;;;3.40
65272;BMP280;51868;48.812;8.198;2023-02-13T06:54:56;102413.91;;;3.43
65272;BMP280;51868;48.812;8.198;2023-02-13T06:57:24;102413.13;;;3.48
65272;BMP280;51868;48.812;8.198;2023-02-13T06:59:53;102414.09;;;3.51
65272;BMP280;51868;48.812;8.198;2023-02-13T07:02:21;102419.06;;;3.52
65272;BMP280;51868;48.812;8.198;2023-02-13T07:04:49;102424.09;;;3.48
65272;BMP280;51868;48.812;8.198;2023-02-13T07:07:16;102432.88;;;3.47
65272;BMP280;51868;48.812;8.198;2023-02-13T07:09:44;102429.88;;;3.45
65272;BMP280;51868;48.812;8.198;2023-02-13T07:12:12;102442.09;;;3.43
65272;BMP280;51868;48.812;8.198;2023-02-13T07:14:39;102438.13;;;3.45
65272;BMP280;51868;48.812;8.198;2023-02-13T07:17:08;102439.34;;;3.43
65272;BMP280;51868;48.812;8.198;2023-02-13T07:19:36;102439.13;;;3.41
65272;BMP280;51868;48.812;8.198;2023-02-13T07:22:04;102443.13;;;3.40
65272;BMP280;51868;48.812;8.198;2023-02-13T07:24:32;102454.38;;;3.37
65272;BMP280;51868;48.812;8.198;2023-02-13T07:27:00;102453.09;;;3.43
65272;BMP280;51868;48.812;8.198;2023-02-13T07:29:28;102453.31;;;3.46
65272;BMP280;51868;48.812;8.198;2023-02-13T07:31:56;102457.78;;;3.49
65272;BMP280;51868;48.812;8.198;2023-02-13T07:34:25;102462.97;;;3.52
65272;BMP280;51868;48.812;8.198;2023-02-13T07:36:53;102459.91;;;3.61
65272;BMP280;51868;48.812;8.198;2023-02-13T07:39:20;102458.09;;;3.70
65272;BMP280;51868;48.812;8.198;2023-02-13T07:41:49;102459.31;;;3.74
65272;BMP280;51868;48.812;8.198;2023-02-13T07:44:17;102467.75;;;3.76
65272;BMP280;51868;48.812;8.198;2023-02-13T07:46:45;102452.75;;;3.77
65272;BMP280;51868;48.812;8.198;2023-02-13T07:49:13;102460.25;;;3.77
65272;BMP280;51868;48.812;8.198;2023-02-13T07:51:42;102463.00;;;3.77
65272;BMP280;51868;48.812;8.198;2023-02-13T07:54:10;102469.25;;;3.77
65272;BMP280;51868;48.812;8.198;2023-02-13T07:56:37;102466.50;;;3.77
65272;BMP280;51868;48.812;8.198;2023-02-13T07:59:05;102461.22;;;3.79
65272;BMP280;51868;48.812;8.198;2023-02-13T08:01:33;102469.25;;;3.77
65272;BMP280;51868;48.812;8.198;2023-02-13T08:04:01;102467.75;;;3.76
65272;BMP280;51868;48.812;8.198;2023-02-13T08:06:29;102467.03;;;3.76
65272;BMP280;51868;48.812;8.198;2023-02-13T08:08:58;102476.00;;;3.76
65272;BMP280;51868;48.812;8.198;2023-02-13T08:11:45;102466.06;;;3.73
65272;BMP280;51868;48.812;8.198;2023-02-13T08:14:24;102473.56;;;3.73
65272;BMP280;51868;48.812;8.198;2023-02-13T08:16:52;102475.03;;;3.74
65272;BMP280;51868;48.812;8.198;2023-02-13T08:19:20;102464.81;;;3.74
65272;BMP280;51868;48.812;8.198;2023-02-13T08:21:48;102469.25;;;3.77
65272;BMP280;51868;48.812;8.198;2023-02-13T08:24:17;102463.53;;;3.75
65272;BMP280;51868;48.812;8.198;2023-02-13T08:26:45;102464.81;;;3.74
65272;BMP280;51868;48.812;8.198;2023-02-13T08:29:13;102465.34;;;3.67
65272;BMP280;51868;48.812;8.198;2023-02-13T08:31:42;102464.19;;;3.57
65272;BMP280;51868;48.812;8.198;2023-02-13T08:34:10;102467.19;;;3.53
65272;BMP280;51868;48.812;8.198;2023-02-13T08:36:38;102463.94;;;3.55
65272;BMP280;51868;48.812;8.198;2023-02-13T08:39:07;102472.44;;;3.57
65272;BMP280;51868;48.812;8.198;2023-02-13T08:41:37;102466.66;;;3.60
65272;BMP280;51868;48.812;8.198;2023-02-13T08:44:05;102460.88;;;3.64
65272;BMP280;51868;48.812;8.198;2023-02-13T08:46:33;102461.34;;;3.68
65272;BMP280;51868;48.812;8.198;2023-02-13T08:49:00;102463.59;;;3.70
65272;BMP280;51868;48.812;8.198;2023-02-13T08:51:28;102464.03;;;3.74
65272;BMP280;51868;48.812;8.198;2023-02-13T08:53:56;102461.53;;;3.76
65272;BMP280;51868;48.812;8.198;2023-02-13T08:56:24;102463.31;;;3.73
65272;BMP280;51868;48.812;8.198;2023-02-13T08:58:53;102463.31;;;3.73
65272;BMP280;51868;48.812;8.198;2023-02-13T09:01:20;102456.97;;;3.78
65272;BMP280;51868;48.812;8.198;2023-02-13T09:03:49;102466.00;;;3.79
65272;BMP280;51868;48.812;8.198;2023-02-13T09:06:17;102462.28;;;3.76
65272;BMP280;51868;48.812;8.198;2023-02-13T09:08:45;102457.50;;;3.77
65272;BMP280;51868;48.812;8.198;2023-02-13T09:11:12;102461.00;;;3.77
65272;BMP280;51868;48.812;8.198;2023-02-13T09:13:40;102454.22;;;3.78
65272;BMP280;51868;48.812;8.198;2023-02-13T09:16:10;102453.97;;;3.82
65272;BMP280;51868;48.812;8.198;2023-02-13T09:18:38;102449.44;;;3.84
65272;BMP280;51868;48.812;8.198;2023-02-13T09:21:08;102456.38;;;3.91
65272;BMP280;51868;48.812;8.198;2023-02-13T09:23:39;102453.31;;;3.95
65272;BMP280;51868;48.812;8.198;2023-02-13T09:26:09;102458.75;;;4.00
65272;BMP280;51868;48.812;8.198;2023-02-13T09:28:38;102454.22;;;4.03
65272;BMP280;51868;48.812;8.198;2023-02-13T09:31:06;102461.72;;;4.02
65272;BMP280;51868;48.812;8.198;2023-02-13T09:33:37;102460.00;;;3.99
65272;BMP280;51868;48.812;8.198;2023-02-13T09:36:05;102470.81;;;3.97
65272;BMP280;51868;48.812;8.198;2023-02-13T09:38:33;102464.56;;;3.97
65272;BMP280;51868;48.812;8.198;2023-02-13T09:41:03;102463.81;;;3.96
65272;BMP280;51868;48.812;8.198;2023-02-13T09:43:36;102466.06;;;3.98
65272;BMP280;51868;48.812;8.198;2023-02-13T09:46:10;102466.06;;;3.98
65272;BMP280;51868;48.812;8.198;2023-02-13T09:48:42;102465.00;;;4.01
65272;BMP280;51868;48.812;8.198;2023-02-13T09:51:12;102471.19;;;4.07
65272;BMP280;51868;48.812;8.198;2023-02-13T09:53:46;102470.94;;;4.05
65272;BMP280;51868;48.812;8.198;2023-02-13T09:56:20;102473.19;;;4.06
65272;BMP280;51868;48.812;8.198;2023-02-13T09:58:54;102475.88;;;4.12
65272;BMP280;51868;48.812;8.198;2023-02-13T10:01:28;102477.56;;;4.15
65272;BMP280;51868;48.812;8.198;2023-02-13T10:04:11;102480.56;;;4.17
65272;BMP280;51868;48.812;8.198;2023-02-13T10:06:44;102482.34;;;4.15
65272;BMP280;51868;48.812;8.198;2023-02-13T10:09:21;102487.84;;;4.15
65272;BMP280;51868;48.812;8.198;2023-02-13T10:12:15;102484.06;;;4.18
65272;BMP280;51868;48.812;8.198;2023-02-13T10:14:53;102475.72;;;4.23
65272;BMP280;51868;48.812;8.198;2023-02-13T10:17:29;102480.94;;;4.27
65272;BMP280;51868;48.812;8.198;2023-02-13T10:20:03;102477.41;;;4.32
65272;BMP280;51868;48.812;8.198;2023-02-13T10:22:35;102480.56;;;4.36
65272;BMP280;51868;48.812;8.198;2023-02-13T10:25:07;102480.06;;;4.38
65272;BMP280;51868;48.812;8.198;2023-02-13T10:27:41;102477.75;;;4.42
65272;BMP280;51868;48.812;8.198;2023-02-13T10:30:19;102475.00;;;4.42
65272;BMP280;51868;48.812;8.198;2023-02-13T10:32:54;102477.56;;;4.40
65272;BMP280;51868;48.812;8.198;2023-02-13T10:35:38;102469.06;;;4.38
65272;BMP280;51868;48.812;8.198;2023-02-13T10:38:13;102475.63;;;4.35
65272;BMP280;51868;48.812;8.198;2023-02-13T10:43:29;102466.97;;;4.44
65272;BMP280;51868;48.812;8.198;2023-02-13T10:46:09;102468.19;;;4.48
65272;BMP280;51868;48.812;8.198;2023-02-13T10:48:49;102472.63;;;4.51
65272;BMP280;51868;48.812;8.198;2023-02-13T10:51:27;102472.03;;;4.59
65272;BMP280;51868;48.812;8.198;2023-02-13T10:54:13;102462.94;;;4.64
65272;BMP280;51868;48.812;8.198;2023-02-13T10:56:51;102462.66;;;4.67
65272;BMP280;51868;48.812;8.198;2023-02-13T10:59:42;102459.59;;;4.71
65272;BMP280;51868;48.812;8.198;2023-02-13T11:02:21;102461.09;;;4.72
65272;BMP280;51868;48.812;8.198;2023-02-13T11:04:51;102458.56;;;4.74
65272;BMP280;51868;48.812;8.198;2023-02-13T11:07:23;102454.03;;;4.77
65272;BMP280;51868;48.812;8.198;2023-02-13T11:09:54;102453.31;;;4.76
65272;BMP280;51868;48.812;8.198;2023-02-13T11:12:24;102457.63;;;4.71
65272;BMP280;51868;48.812;8.198;2023-02-13T11:14:56;102452.84;;;4.72
65272;BMP280;51868;48.812;8.198;2023-02-13T11:17:27;102452.63;;;4.70
65272;BMP280;51868;48.812;8.198;2023-02-13T11:19:57;102453.59;;;4.72
65272;BMP280;51868;48.812;8.198;2023-02-13T11:22:30;102449.78;;;4.76
65272;BMP280;51868;48.812;8.198;2023-02-13T11:25:02;102446.72;;;4.79
65272;BMP280;51868;48.812;8.198;2023-02-13T11:27:33;102455.94;;;4.82
65272;BMP280;51868;48.812;8.198;2023-02-13T11:30:04;102450.44;;;4.82
65272;BMP280;51868;48.812;8.198;2023-02-13T11:32:33;102444.94;;;4.82
65272;BMP280;51868;48.812;8.198;2023-02-13T11:35:24;102445.66;;;4.82
65272;BMP280;51868;48.812;8.198;2023-02-13T11:38:22;102432.88;;;4.85
65272;BMP280;51868;48.812;8.198;2023-02-13T11:40:51;102442.84;;;4.88
65272;BMP280;51868;48.812;8.198;2023-02-13T11:43:33;102438.09;;;4.88
65272;BMP280;51868;48.812;8.198;2023-02-13T11:46:04;102434.81;;;4.90
65272;BMP280;51868;48.812;8.198;2023-02-13T11:48:33;102430.56;;;4.89
65272;BMP280;51868;48.812;8.198;2023-02-13T11:51:02;102430.78;;;4.91
65272;BMP280;51868;48.812;8.198;2023-02-13T11:53:35;102426.03;;;4.91
65272;BMP280;51868;48.812;8.198;2023-02-13T11:56:07;102431.03;;;4.93
65272;BMP280;51868;48.812;8.198;2023-02-13T11:58:36;102426.47;;;4.95
65272;BMP280;51868;48.812;8.198;2023-02-13T12:01:25;102421.41;;;5.00
65272;BMP280;51868;48.812;8.198;2023-02-13T12:04:00;102430.84;;;5.04
65272;BMP280;51868;48.812;8.198;2023-02-13T12:06:29;102425.78;;;5.08
65272;BMP280;51868;48.812;8.198;2023-02-13T12:09:10;102428.94;;;5.12
65272;BMP280;51868;48.812;8.198;2023-02-13T12:11:43;102430.66;;;5.15
65272;BMP280;51868;48.812;8.198;2023-02-13T12:14:15;102423.56;;;5.20
65272;BMP280;51868;48.812;8.198;2023-02-13T12:16:47;102418.78;;;5.21
65272;BMP280;51868;48.812;8.198;2023-02-13T12:19:21;102425.47;;;5.25
65272;BMP280;51868;48.812;8.198;2023-02-13T12:22:03;102416.38;;;5.30
65272;BMP280;51868;48.812;8.198;2023-02-13T12:24:57;102418.59;;;5.32
65272;BMP280;51868;48.812;8.198;2023-02-13T12:27:36;102421.56;;;5.34
65272;BMP280;51868;48.812;8.198;2023-02-13T12:33:25;102412.97;;;5.37
65272;BMP280;51868;48.812;8.198;2023-02-13T12:36:00;102409.94;;;5.41
65272;BMP280;51868;48.812;8.198;2023-02-13T12:38:53;102407.41;;;5.43
65272;BMP280;51868;48.812;8.198;2023-02-13T12:41:28;102402.09;;;5.45
65272;BMP280;51868;48.812;8.198;2023-02-13T12:44:40;102397.75;;;5.50
65272;BMP280;51868;48.812;8.198;2023-02-13T12:47:18;102398.16;;;5.54
65272;BMP280;51868;48.812;8.198;2023-02-13T12:50:06;102405.38;;;5.57
65272;BMP280;51868;48.812;8.198;2023-02-13T12:55:58;102399.22;;;5.64
65272;BMP280;51868;48.812;8.198;2023-02-13T12:58:59;102395.41;;;5.67
65272;BMP280;51868;48.812;8.198;2023-02-13T13:01:49;102396.69;;;5.66
65272;BMP280;51868;48.812;8.198;2023-02-13T13:04:30;102395.91;;;5.66
65272;BMP280;51868;48.812;8.198;2023-02-13T13:07:18;102394.13;;;5.68
65272;BMP280;51868;48.812;8.198;2023-02-13T13:09:57;102398.16;;;5.67
65272;BMP280;51868;48.812;8.198;2023-02-13T13:12:41;102397.94;;;5.65
65272;BMP280;51868;48.812;8.198;2023-02-13T13:15:21;102393.91;;;5.66
65272;BMP280;51868;48.812;8.198;2023-02-13T13:18:02;102401.84;;;5.70
65272;BMP280;51868;48.812;8.198;2023-02-13T13:23:30;102400.16;;;5.80
65272;BMP280;51868;48.812;8.198;2023-02-13T13:26:06;102399.31;;;5.85
65272;BMP280;51868;48.812;8.198;2023-02-13T13:28:40;102393.28;;;5.87
65272;BMP280;51868;48.812;8.198;2023-02-13T13:31:11;102396.97;;;5.89
65272;BMP280;51868;48.812;8.198;2023-02-13T13:33:42;102397.06;;;5.97
65272;BMP280;51868;48.812;8.198;2023-02-13T13:36:15;102388.66;;;6.02
65272;BMP280;51868;48.812;8.198;2023-02-13T13:38:52;102389.47;;;6.11
65272;BMP280;51868;48.812;8.198;2023-02-13T13:41:33;102394.69;;;6.14
65272;BMP280;51868;48.812;8.198;2023-02-13T13:44:12;102387.59;;;6.19
65272;BMP280;51868;48.812;8.198;2023-02-13T13:46:51;102385.31;;;6.31
65272;BMP280;51868;48.812;8.198;2023-02-13T13:49:34;102378.88;;;6.49
65272;BMP280;51868;48.812;8.198;2023-02-13T13:52:19;102375.41;;;6.77
65272;BMP280;51868;48.812;8.198;2023-02-13T13:54:48;102365.75;;;8.46
65272;BMP280;51868;48.812;8.198;2023-02-13T13:57:17;102348.19;;;11.05
65272;BMP280;51868;48.812;8.198;2023-02-13T14:03:35;102337.72;;;15.02
65272;BMP280;51868;48.812;8.198;2023-02-13T14:06:06;102349.31;;;16.53
65272;BMP280;51868;48.812;8.198;2023-02-13T14:08:56;102347.75;;;17.56
65272;BMP280;51868;48.812;8.198;2023-02-13T14:11:28;102351.97;;;18.28
65272;BMP280;51868;48.812;8.198;2023-02-13T14:13:57;102349.16;;;18.89
65272;BMP280;51868;48.812;8.198;2023-02-13T14:16:39;102356.25;;;18.75
65272;BMP280;51868;48.812;8.198;2023-02-13T14:19:24;102355.16;;;18.36
65272;BMP280;51868;48.812;8.198;2023-02-13T14:21:53;102359.91;;;18.48
65272;BMP280;51868;48.812;8.198;2023-02-13T14:24:23;102353.94;;;18.26
65272;BMP280;51868;48.812;8.198;2023-02-13T14:26:53;102361.41;;;17.91
65272;BMP280;51868;48.812;8.198;2023-02-13T14:29:32;102361.94;;;16.40
65272;BMP280;51868;48.812;8.198;2023-02-13T14:32:16;102362.81;;;16.31
65272;BMP280;51868;48.812;8.198;2023-02-13T14:34:52;102355.38;;;15.75
65272;BMP280;51868;48.812;8.198;2023-02-13T14:37:27;102353.22;;;14.82
65272;BMP280;51868;48.812;8.198;2023-02-13T14:40:29;102360.53;;;13.48
65272;BMP280;51868;48.812;8.198;2023-02-13T14:43:00;102361.69;;;12.56
65272;BMP280;51868;48.812;8.198;2023-02-13T14:45:30;102357.66;;;11.74
65272;BMP280;51868;48.812;8.198;2023-02-13T14:48:05;102365.41;;;11.04
65272;BMP280;51868;48.812;8.198;2023-02-13T14:50:43;102354.13;;;10.50
65272;BMP280;51868;48.812;8.198;2023-02-13T14:53:20;102355.44;;;10.06
65272;BMP280;51868;48.812;8.198;2023-02-13T14:55:54;102346.53;;;9.75
65272;BMP280;51868;48.812;8.198;2023-02-13T14:58:26;102343.34;;;9.54
65272;BMP280;51868;48.812;8.198;2023-02-13T15:00:59;102339.56;;;9.34
65272;BMP280;51868;48.812;8.198;2023-02-13T15:03:35;102334.66;;;9.17
65272;BMP280;51868;48.812;8.198;2023-02-13T15:06:11;102335.97;;;9.00